Kruibeke, Belgium
Current Conditions -  °F | °C
As of 1:20 AM on Sunday 26 Oct 2014 (Local Time) from EBAW Reporting Station
Overcast Overcast  
Wind Chill: 55°   Ceiling: 4200
Heat Index: 55°   Visibility: 6mi
Dew Point: 46°   Wind: 6mph
Humidity: 72%   Direction: 200°SSW
Pressure: 30.21"   Gusts: NA
Location:  51.17°N, 4.31°E
Report Text: EBAW 252320Z AUTO 20005KT 9999 FEW031/// OVC042/// 13/08 Q1023
Loading
Personal Weather Stations






























Interactive Weather Map New forecast layout! Learn more

10-Day Weather Forecast

Advertisements
Track Severe Weather on mobile